createdAt,value
2023-06-16T00:00:12.829Z,98513.27
2023-06-16T00:01:56.835Z,98513.80
2023-06-16T00:03:45.958Z,98516.31
2023-06-16T00:05:25.549Z,98514.89
2023-06-16T00:06:59.371Z,98510.20
2023-06-16T00:08:33.146Z,98507.82
2023-06-16T00:09:56.809Z,98506.23
2023-06-16T00:11:37.911Z,98507.23
2023-06-16T00:13:28.303Z,98503.83
2023-06-16T00:15:14.532Z,98505.10
2023-06-16T00:17:00.508Z,98507.77
2023-06-16T00:18:29.710Z,98506.30
2023-06-16T00:20:03.216Z,98510.88
2023-06-16T00:21:47.218Z,98515.52
2023-06-16T00:23:23.976Z,98515.36
2023-06-16T00:25:08.937Z,98513.09
2023-06-16T00:26:50.918Z,98512.02
2023-06-16T00:28:15.511Z,98517.73
2023-06-16T00:29:48.731Z,98514.23
2023-06-16T00:31:34.424Z,98511.86
2023-06-16T00:33:08.223Z,98510.90
2023-06-16T00:34:44.146Z,98509.76
2023-06-16T00:36:29.704Z,98509.45
2023-06-16T00:37:59.417Z,98503.29
2023-06-16T00:39:21.268Z,98505.80
2023-06-16T00:40:45.330Z,98501.63
2023-06-16T00:42:19.354Z,98503.60
2023-06-16T00:43:55.103Z,98495.27
2023-06-16T00:45:31.411Z,98493.45
2023-06-16T00:47:18.492Z,98497.02
2023-06-16T00:48:50.720Z,98496.02
2023-06-16T00:50:12.697Z,98497.70
2023-06-16T00:51:45.910Z,98495.95
2023-06-16T00:53:22.291Z,98488.91
2023-06-16T00:55:03.405Z,98485.61
2023-06-16T00:56:38.389Z,98484.30
2023-06-16T00:58:19.724Z,98484.01
2023-06-16T01:00:05.353Z,98480.95
2023-06-16T01:01:29.387Z,98469.70
2023-06-16T01:03:23.643Z,98480.78
2023-06-16T01:04:47.518Z,98482.27
2023-06-16T01:06:22.575Z,98477.58
2023-06-16T01:08:12.006Z,98480.23
2023-06-16T01:10:05.435Z,98481.98
2023-06-16T01:11:41.321Z,98481.23
2023-06-16T01:13:14.982Z,98478.05
2023-06-16T01:15:01.436Z,98478.64
2023-06-16T01:16:36.501Z,98476.19
2023-06-16T01:18:21.914Z,98476.02
2023-06-16T01:19:57.554Z,98474.05
2023-06-16T01:21:43.897Z,98474.23
2023-06-16T01:23:29.430Z,98471.30
2023-06-16T01:25:17.322Z,98468.59
2023-06-16T01:26:58.930Z,98471.71
2023-06-16T01:28:32.950Z,98467.55
2023-06-16T01:30:20.582Z,98470.25
2023-06-16T01:32:14.345Z,98459.96
2023-06-16T01:33:47.528Z,98471.73
2023-06-16T01:35:21.033Z,98457.15
2023-06-16T01:36:54.331Z,98462.95
2023-06-16T01:38:27.715Z,98465.66
2023-06-16T01:40:03.030Z,98472.50
2023-06-16T01:41:26.298Z,98471.85
2023-06-16T01:42:52.650Z,98466.69
2023-06-16T01:44:19.139Z,98472.48
2023-06-16T01:46:04.367Z,98469.47
2023-06-16T01:47:59.418Z,98470.29
2023-06-16T01:49:36.388Z,98468.42
2023-06-16T01:51:18.696Z,98472.65
2023-06-16T01:52:42.715Z,98468.42
2023-06-16T01:54:27.979Z,98470.30
2023-06-16T01:56:13.306Z,98476.21
2023-06-16T01:57:58.465Z,98474.30
2023-06-16T01:59:22.776Z,98471.39
2023-06-16T02:01:09.042Z,98476.33
2023-06-16T02:02:49.971Z,98472.23
2023-06-16T02:04:34.862Z,98472.71
2023-06-16T02:06:08.456Z,98476.83
2023-06-16T02:07:49.482Z,98466.55
2023-06-16T02:09:23.365Z,98480.94
2023-06-16T02:10:59.096Z,98475.65
2023-06-16T02:12:53.364Z,98476.73
2023-06-16T02:14:29.218Z,98481.23
2023-06-16T02:16:06.881Z,98478.98
2023-06-16T02:17:59.613Z,98484.15
2023-06-16T02:19:41.154Z,98468.15
2023-06-16T02:21:06.349Z,98478.50
2023-06-16T02:22:32.719Z,98474.47
2023-06-16T02:23:54.477Z,98483.09
2023-06-16T02:25:30.022Z,98479.73
2023-06-16T02:27:05.472Z,98483.34
2023-06-16T02:28:50.657Z,98473.05
2023-06-16T02:30:26.269Z,98480.69
2023-06-16T02:31:52.459Z,98478.02
2023-06-16T02:33:26.673Z,98483.77
2023-06-16T02:35:17.127Z,98482.97
2023-06-16T02:36:51.481Z,98484.53
2023-06-16T02:38:27.598Z,98479.73
2023-06-16T02:40:09.156Z,98484.11
2023-06-16T02:41:52.391Z,98485.19
2023-06-16T02:43:46.654Z,98481.56
2023-06-16T02:45:20.126Z,98483.23
2023-06-16T02:46:53.769Z,98484.72
2023-06-16T02:48:39.494Z,98482.77
2023-06-16T02:50:15.354Z,98484.30
2023-06-16T02:51:56.303Z,98482.39
2023-06-16T02:53:23.715Z,98480.80
2023-06-16T02:54:57.098Z,98480.42
2023-06-16T02:56:50.398Z,98483.39
2023-06-16T02:58:26.950Z,98479.63
2023-06-16T03:00:06.320Z,98482.12
2023-06-16T03:01:45.838Z,98483.90
2023-06-16T03:03:39.832Z,98480.55
2023-06-16T03:05:36.462Z,98481.69
2023-06-16T03:07:22.908Z,98482.34
2023-06-16T03:08:46.889Z,98478.77
2023-06-16T03:10:22.890Z,98481.30
2023-06-16T03:12:11.345Z,98468.55
2023-06-16T03:14:09.366Z,98473.39
2023-06-16T03:15:33.494Z,98473.26
2023-06-16T03:17:19.917Z,98473.40
2023-06-16T03:18:51.071Z,98473.95
2023-06-16T03:20:36.608Z,98471.26
2023-06-16T03:22:17.944Z,98468.77
2023-06-16T03:23:47.329Z,98467.97
2023-06-16T03:25:33.931Z,98466.83
2023-06-16T03:27:27.565Z,98463.45
2023-06-16T03:31:23.569Z,98469.34
2023-06-16T03:32:47.818Z,98470.92
2023-06-16T03:34:32.829Z,98470.84
2023-06-16T03:36:06.572Z,98476.08
2023-06-16T03:37:53.468Z,98476.06
2023-06-16T03:39:34.885Z,98475.30
2023-06-16T03:41:10.885Z,98482.44
2023-06-16T03:42:55.762Z,98480.23
2023-06-16T03:44:29.047Z,98479.42
2023-06-16T03:46:15.660Z,98480.10
2023-06-16T03:47:49.054Z,98480.02
2023-06-16T03:49:35.335Z,98481.31
2023-06-16T03:54:41.324Z,98474.20
2023-06-16T03:56:14.734Z,98477.27
2023-06-16T03:57:45.042Z,98473.02
2023-06-16T03:59:30.496Z,98475.91
2023-06-16T04:01:16.823Z,98476.08
2023-06-16T04:03:01.579Z,98479.54
2023-06-16T04:04:26.654Z,98476.81
2023-06-16T04:06:09.380Z,98478.11
2023-06-16T04:07:45.281Z,98477.55
2023-06-16T04:09:19.029Z,98480.38
2023-06-16T04:10:44.730Z,98479.27
2023-06-16T04:12:26.191Z,98476.91
2023-06-16T04:14:06.676Z,98479.33
2023-06-16T04:15:40.180Z,98475.42
2023-06-16T04:17:09.458Z,98477.45
2023-06-16T04:18:55.195Z,98478.80
2023-06-16T04:20:22.223Z,98478.48
2023-06-16T04:21:59.280Z,98476.44
2023-06-16T04:23:38.498Z,98482.45
2023-06-16T04:25:23.845Z,98480.26
2023-06-16T04:27:11.068Z,98479.97
2023-06-16T04:28:52.320Z,98478.23
2023-06-16T04:30:23.915Z,98479.21
2023-06-16T04:32:06.462Z,98481.19
2023-06-16T04:33:54.350Z,98478.69
2023-06-16T04:35:28.367Z,98475.55
2023-06-16T04:37:10.054Z,98476.23
2023-06-16T04:38:56.748Z,98476.49
2023-06-16T04:40:32.304Z,98475.80
2023-06-16T04:42:17.450Z,98477.61
2023-06-16T04:43:40.524Z,98472.80
2023-06-16T04:45:25.644Z,98473.41
2023-06-16T04:47:13.876Z,98476.63
2023-06-16T04:48:47.427Z,98475.38
2023-06-16T04:50:21.240Z,98479.81
2023-06-16T04:51:54.654Z,98481.98
2023-06-16T04:53:40.053Z,98477.98
2023-06-16T04:55:16.158Z,98480.00
2023-06-16T04:56:56.812Z,98476.70
2023-06-16T04:58:30.632Z,98481.52
2023-06-16T05:00:04.596Z,98478.10
2023-06-16T05:01:29.287Z,98480.71
2023-06-16T05:02:58.067Z,98480.90
2023-06-16T05:04:45.236Z,98480.52
2023-06-16T05:06:32.676Z,98483.23
2023-06-16T05:08:01.888Z,98484.73
2023-06-16T05:09:47.416Z,98484.67
2023-06-16T05:11:20.936Z,98488.79
2023-06-16T05:12:52.549Z,98485.96
2023-06-16T05:14:26.853Z,98486.41
2023-06-16T05:16:09.370Z,98485.94
2023-06-16T05:17:54.435Z,98486.43
2023-06-16T05:19:34.813Z,98488.46
2023-06-16T05:21:20.328Z,98485.55
2023-06-16T05:23:15.423Z,98485.00
2023-06-16T05:24:49.433Z,98478.77
2023-06-16T05:26:23.575Z,98488.36
2023-06-16T05:27:48.110Z,98488.04
2023-06-16T05:29:22.011Z,98491.13
2023-06-16T05:30:55.493Z,98483.84
2023-06-16T05:32:17.603Z,98481.16
2023-06-16T05:34:02.623Z,98483.56
2023-06-16T05:35:52.418Z,98485.48
2023-06-16T05:37:33.215Z,98482.04
2023-06-16T05:39:28.484Z,98481.03
2023-06-16T05:41:13.884Z,98476.06
2023-06-16T05:42:45.767Z,98482.46
2023-06-16T05:44:08.413Z,98485.21
2023-06-16T05:45:45.092Z,98480.77
2023-06-16T05:47:20.490Z,98484.15
2023-06-16T05:49:02.678Z,98488.67
2023-06-16T05:50:44.157Z,98488.67
2023-06-16T05:52:25.226Z,98487.34
2023-06-16T05:53:49.413Z,98487.92
2023-06-16T05:55:15.758Z,98485.23
2023-06-16T05:56:56.150Z,98484.04
2023-06-16T05:58:29.762Z,98484.98
2023-06-16T06:00:10.540Z,98486.15
2023-06-16T06:01:55.566Z,98486.72
2023-06-16T06:03:25.833Z,98485.39
2023-06-16T06:04:59.701Z,98483.02
2023-06-16T06:06:48.420Z,98482.70
2023-06-16T06:08:12.312Z,98486.88
2023-06-16T06:09:36.940Z,98482.46
2023-06-16T06:11:22.102Z,98483.91
2023-06-16T06:13:12.348Z,98481.11
2023-06-16T06:14:54.456Z,98484.53
2023-06-16T06:16:30.707Z,98485.18
2023-06-16T06:17:56.950Z,98486.35
2023-06-16T06:19:42.494Z,98484.89
2023-06-16T06:21:09.040Z,98483.77
2023-06-16T06:22:48.114Z,98484.31
2023-06-16T06:24:34.400Z,98485.97
2023-06-16T06:26:07.856Z,98484.13
2023-06-16T06:27:41.487Z,98487.02
2023-06-16T06:29:17.717Z,98484.88
2023-06-16T06:31:04.245Z,98489.77
2023-06-16T06:32:46.003Z,98488.20
2023-06-16T06:34:17.869Z,98486.48
2023-06-16T06:35:47.217Z,98484.88
2023-06-16T06:37:33.217Z,98490.71
2023-06-16T06:39:04.297Z,98488.41
2023-06-16T06:40:37.643Z,98486.89
2023-06-16T06:42:18.774Z,98485.43
2023-06-16T06:43:46.357Z,98488.42
2023-06-16T06:45:12.613Z,98487.25
2023-06-16T06:46:53.524Z,98489.47
2023-06-16T06:48:39.989Z,98491.11
2023-06-16T06:50:14.942Z,98489.02
2023-06-16T06:51:56.030Z,98496.98
2023-06-16T06:53:29.200Z,98492.91
2023-06-16T06:54:51.120Z,98491.90
2023-06-16T06:56:15.791Z,98491.40
2023-06-16T06:57:45.630Z,98493.51
2023-06-16T06:59:14.940Z,98490.83
2023-06-16T07:00:50.643Z,98495.54
2023-06-16T07:02:26.752Z,98487.13
2023-06-16T07:04:21.366Z,98499.56
2023-06-16T07:05:50.425Z,98494.17
2023-06-16T07:07:25.970Z,98497.92
2023-06-16T07:09:03.380Z,98494.69
2023-06-16T07:10:33.161Z,98494.25
2023-06-16T07:12:26.843Z,98493.87
2023-06-16T07:14:11.696Z,98490.48
2023-06-16T07:15:52.763Z,98493.52
2023-06-16T07:17:43.563Z,98492.80
2023-06-16T07:19:16.881Z,98490.53
2023-06-16T07:20:52.612Z,98489.80
2023-06-16T07:22:34.745Z,98489.79
2023-06-16T07:24:08.431Z,98489.48
2023-06-16T07:25:45.250Z,98488.17
2023-06-16T07:27:07.410Z,98494.95
2023-06-16T07:28:31.553Z,98490.23
2023-06-16T07:30:04.671Z,98490.70
2023-06-16T07:31:28.752Z,98489.11
2023-06-16T07:33:09.906Z,98487.69
2023-06-16T07:34:46.251Z,98487.23
2023-06-16T07:36:19.798Z,98486.28
2023-06-16T07:37:53.371Z,98485.92
2023-06-16T07:39:26.856Z,98487.13
2023-06-16T07:41:21.395Z,98485.23
2023-06-16T07:43:06.084Z,98488.03
2023-06-16T07:44:51.014Z,98488.05
2023-06-16T07:46:18.255Z,98486.16
2023-06-16T07:47:47.350Z,98487.43
2023-06-16T07:49:11.405Z,98484.61
2023-06-16T07:50:35.864Z,98487.33
2023-06-16T07:52:17.942Z,98471.75
2023-06-16T07:53:44.244Z,98484.16
2023-06-16T07:55:15.790Z,98482.24
2023-06-16T07:57:09.352Z,98481.38
2023-06-16T07:59:04.387Z,98480.83
2023-06-16T08:00:45.176Z,98487.44
2023-06-16T08:02:09.214Z,98485.27
2023-06-16T08:03:50.258Z,98482.94
2023-06-16T08:05:17.530Z,98482.42
2023-06-16T08:07:02.488Z,98479.83
2023-06-16T08:08:43.023Z,98477.59
2023-06-16T08:10:32.306Z,98478.63
2023-06-16T08:14:24.633Z,98476.81
2023-06-16T08:16:09.497Z,98481.10
2023-06-16T08:17:45.650Z,98474.15
2023-06-16T08:19:31.231Z,98474.55
2023-06-16T08:21:08.119Z,98473.97
2023-06-16T08:22:33.399Z,98477.21
2023-06-16T08:24:18.903Z,98476.51
2023-06-16T08:26:03.474Z,98474.80
2023-06-16T08:27:39.042Z,98477.14
2023-06-16T08:29:24.873Z,98473.30
2023-06-16T08:31:05.610Z,98476.95
2023-06-16T08:32:47.034Z,98476.73
2023-06-16T08:34:15.767Z,98478.13
2023-06-16T08:36:01.576Z,98474.58
2023-06-16T08:37:42.074Z,98474.81
2023-06-16T08:39:06.599Z,98471.75
2023-06-16T08:40:28.322Z,98475.16
2023-06-16T08:42:01.868Z,98476.27
2023-06-16T08:43:37.643Z,98472.48
2023-06-16T08:45:13.734Z,98472.58
2023-06-16T08:46:38.067Z,98472.03
2023-06-16T08:48:20.011Z,98471.26
2023-06-16T08:49:55.844Z,98470.51
2023-06-16T08:51:29.488Z,98472.15
2023-06-16T08:53:18.639Z,98475.42
2023-06-16T08:55:00.423Z,98472.21
2023-06-16T08:56:30.272Z,98467.74
2023-06-16T08:57:59.345Z,98465.38
2023-06-16T08:59:35.558Z,98468.02
2023-06-16T09:01:11.023Z,98469.07
2023-06-16T09:03:01.562Z,98469.59
2023-06-16T09:04:42.412Z,98463.10
2023-06-16T09:06:28.104Z,98463.83
2023-06-16T09:08:04.800Z,98467.42
2023-06-16T09:09:50.636Z,98465.51
2023-06-16T09:11:36.089Z,98464.27
2023-06-16T09:13:11.530Z,98460.52
2023-06-16T09:15:01.360Z,98466.55
2023-06-16T09:16:42.258Z,98465.62
2023-06-16T09:18:27.931Z,98463.25
2023-06-16T09:20:01.251Z,98466.11
2023-06-16T09:21:43.566Z,98463.42
2023-06-16T09:23:19.760Z,98464.09
2023-06-16T09:25:14.394Z,98465.14
2023-06-16T09:26:59.766Z,98467.11
2023-06-16T09:28:33.765Z,98460.13
2023-06-16T09:30:02.931Z,98471.33
2023-06-16T09:31:47.921Z,98463.00
2023-06-16T09:33:10.306Z,98467.92
2023-06-16T09:34:49.849Z,98467.92
2023-06-16T09:36:35.127Z,98460.80
2023-06-16T09:37:57.778Z,98462.71
